sensor_id;sensor_type;location;lat;lon;timestamp;temperature;humidity
9820;DHT22;4949;48.482;9.206;2023-07-09T00:03:00;24.40;57.60
9820;DHT22;4949;48.482;9.206;2023-07-09T00:08:05;24.30;58.00
9820;DHT22;4949;48.482;9.206;2023-07-09T00:13:07;24.20;58.50
9820;DHT22;4949;48.482;9.206;2023-07-09T00:18:13;24.00;59.10
9820;DHT22;4949;48.482;9.206;2023-07-09T00:23:16;23.90;59.70
9820;DHT22;4949;48.482;9.206;2023-07-09T00:28:23;23.90;59.80
9820;DHT22;4949;48.482;9.206;2023-07-09T00:33:24;23.70;60.40
9820;DHT22;4949;48.482;9.206;2023-07-09T00:38:31;23.50;61.00
9820;DHT22;4949;48.482;9.206;2023-07-09T00:43:39;23.50;61.20
9820;DHT22;4949;48.482;9.206;2023-07-09T00:48:42;23.40;61.30
9820;DHT22;4949;48.482;9.206;2023-07-09T00:53:45;23.20;61.30
9820;DHT22;4949;48.482;9.206;2023-07-09T00:58:47;23.20;62.10
9820;DHT22;4949;48.482;9.206;2023-07-09T01:03:52;23.20;62.50
9820;DHT22;4949;48.482;9.206;2023-07-09T01:08:58;23.00;62.30
9820;DHT22;4949;48.482;9.206;2023-07-09T01:14:03;23.00;62.90
9820;DHT22;4949;48.482;9.206;2023-07-09T01:19:06;22.90;63.40
9820;DHT22;4949;48.482;9.206;2023-07-09T01:24:12;22.80;64.10
9820;DHT22;4949;48.482;9.206;2023-07-09T01:29:36;22.70;64.70
9820;DHT22;4949;48.482;9.206;2023-07-09T01:34:40;22.60;64.60
9820;DHT22;4949;48.482;9.206;2023-07-09T01:39:41;22.50;64.90
9820;DHT22;4949;48.482;9.206;2023-07-09T01:44:44;22.50;65.00
9820;DHT22;4949;48.482;9.206;2023-07-09T01:49:50;22.40;65.50
9820;DHT22;4949;48.482;9.206;2023-07-09T01:54:57;22.30;65.70
9820;DHT22;4949;48.482;9.206;2023-07-09T02:00:05;22.30;66.10
9820;DHT22;4949;48.482;9.206;2023-07-09T02:05:19;22.10;66.20
9820;DHT22;4949;48.482;9.206;2023-07-09T02:10:20;21.90;66.70
9820;DHT22;4949;48.482;9.206;2023-07-09T02:15:23;22.00;67.00
9820;DHT22;4949;48.482;9.206;2023-07-09T02:20:26;21.90;67.10
9820;DHT22;4949;48.482;9.206;2023-07-09T02:25:27;21.90;67.80
9820;DHT22;4949;48.482;9.206;2023-07-09T02:30:30;21.80;67.60
9820;DHT22;4949;48.482;9.206;2023-07-09T02:35:31;21.80;67.80
9820;DHT22;4949;48.482;9.206;2023-07-09T02:40:34;21.70;68.40
9820;DHT22;4949;48.482;9.206;2023-07-09T02:45:34;21.60;68.70
9820;DHT22;4949;48.482;9.206;2023-07-09T02:50:35;21.50;68.70
9820;DHT22;4949;48.482;9.206;2023-07-09T02:55:36;21.50;68.90
9820;DHT22;4949;48.482;9.206;2023-07-09T03:00:36;21.40;69.10
9820;DHT22;4949;48.482;9.206;2023-07-09T03:05:39;21.30;69.20
9820;DHT22;4949;48.482;9.206;2023-07-09T03:10:43;21.20;69.80
9820;DHT22;4949;48.482;9.206;2023-07-09T03:15:43;21.10;69.80
9820;DHT22;4949;48.482;9.206;2023-07-09T03:20:57;21.10;69.90
9820;DHT22;4949;48.482;9.206;2023-07-09T03:26:00;21.10;70.10
9820;DHT22;4949;48.482;9.206;2023-07-09T03:31:03;21.00;70.60
9820;DHT22;4949;48.482;9.206;2023-07-09T03:36:04;21.00;70.50
9820;DHT22;4949;48.482;9.206;2023-07-09T03:41:10;20.90;71.00
9820;DHT22;4949;48.482;9.206;2023-07-09T03:46:10;20.80;71.20
9820;DHT22;4949;48.482;9.206;2023-07-09T03:51:11;20.80;71.40
9820;DHT22;4949;48.482;9.206;2023-07-09T03:56:13;20.80;71.50
9820;DHT22;4949;48.482;9.206;2023-07-09T04:01:16;20.70;71.50
9820;DHT22;4949;48.482;9.206;2023-07-09T04:06:17;20.70;71.40
9820;DHT22;4949;48.482;9.206;2023-07-09T04:11:18;20.70;71.70
9820;DHT22;4949;48.482;9.206;2023-07-09T04:16:18;20.70;71.70
9820;DHT22;4949;48.482;9.206;2023-07-09T04:21:19;20.70;72.20
9820;DHT22;4949;48.482;9.206;2023-07-09T04:26:22;20.70;72.10
9820;DHT22;4949;48.482;9.206;2023-07-09T04:31:25;20.70;72.60
9820;DHT22;4949;48.482;9.206;2023-07-09T04:36:29;20.70;72.00
9820;DHT22;4949;48.482;9.206;2023-07-09T04:41:29;20.70;71.80
9820;DHT22;4949;48.482;9.206;2023-07-09T04:46:32;20.70;71.60
9820;DHT22;4949;48.482;9.206;2023-07-09T04:51:35;20.70;71.40
9820;DHT22;4949;48.482;9.206;2023-07-09T04:56:36;20.80;71.50
9820;DHT22;4949;48.482;9.206;2023-07-09T05:01:38;20.80;71.10
9820;DHT22;4949;48.482;9.206;2023-07-09T05:06:42;20.90;70.70
9820;DHT22;4949;48.482;9.206;2023-07-09T05:11:46;21.00;70.80
9820;DHT22;4949;48.482;9.206;2023-07-09T05:16:49;21.00;71.20
9820;DHT22;4949;48.482;9.206;2023-07-09T05:21:52;21.10;71.30
9820;DHT22;4949;48.482;9.206;2023-07-09T05:26:53;21.20;70.80
9820;DHT22;4949;48.482;9.206;2023-07-09T05:31:54;21.20;70.80
9820;DHT22;4949;48.482;9.206;2023-07-09T05:36:57;21.30;70.00
9820;DHT22;4949;48.482;9.206;2023-07-09T05:41:57;21.30;70.40
9820;DHT22;4949;48.482;9.206;2023-07-09T05:46:58;21.40;70.70
9820;DHT22;4949;48.482;9.206;2023-07-09T05:51:59;21.50;69.80
9820;DHT22;4949;48.482;9.206;2023-07-09T05:57:00;21.60;69.60
9820;DHT22;4949;48.482;9.206;2023-07-09T06:02:03;21.70;68.70
9820;DHT22;4949;48.482;9.206;2023-07-09T06:07:04;21.80;68.20
9820;DHT22;4949;48.482;9.206;2023-07-09T06:12:06;21.80;67.80
9820;DHT22;4949;48.482;9.206;2023-07-09T06:17:07;21.90;67.80
9820;DHT22;4949;48.482;9.206;2023-07-09T06:22:08;22.00;67.70
9820;DHT22;4949;48.482;9.206;2023-07-09T06:27:09;22.20;67.60
9820;DHT22;4949;48.482;9.206;2023-07-09T06:32:12;22.30;67.20
9820;DHT22;4949;48.482;9.206;2023-07-09T06:37:13;22.40;67.20
9820;DHT22;4949;48.482;9.206;2023-07-09T06:42:16;22.50;66.90
9820;DHT22;4949;48.482;9.206;2023-07-09T06:47:19;22.60;66.50
9820;DHT22;4949;48.482;9.206;2023-07-09T06:52:22;22.80;66.40
9820;DHT22;4949;48.482;9.206;2023-07-09T06:57:25;22.90;65.90
9820;DHT22;4949;48.482;9.206;2023-07-09T07:02:26;23.10;65.30
9820;DHT22;4949;48.482;9.206;2023-07-09T07:07:27;23.20;65.00
9820;DHT22;4949;48.482;9.206;2023-07-09T07:12:29;23.30;64.60
9820;DHT22;4949;48.482;9.206;2023-07-09T07:17:32;23.50;64.20
9820;DHT22;4949;48.482;9.206;2023-07-09T07:22:35;23.60;64.20
9820;DHT22;4949;48.482;9.206;2023-07-09T07:27:39;23.80;64.40
9820;DHT22;4949;48.482;9.206;2023-07-09T07:32:45;24.00;64.00
9820;DHT22;4949;48.482;9.206;2023-07-09T07:37:47;24.20;63.70
9820;DHT22;4949;48.482;9.206;2023-07-09T07:42:48;24.30;62.70
9820;DHT22;4949;48.482;9.206;2023-07-09T07:47:49;24.50;62.50
9820;DHT22;4949;48.482;9.206;2023-07-09T07:52:52;24.60;62.00
9820;DHT22;4949;48.482;9.206;2023-07-09T07:57:53;24.80;61.10
9820;DHT22;4949;48.482;9.206;2023-07-09T08:02:54;25.00;60.20
9820;DHT22;4949;48.482;9.206;2023-07-09T08:07:54;25.20;59.60
9820;DHT22;4949;48.482;9.206;2023-07-09T08:12:55;25.40;58.60
9820;DHT22;4949;48.482;9.206;2023-07-09T08:18:01;25.60;58.10
9820;DHT22;4949;48.482;9.206;2023-07-09T08:23:02;25.80;57.20
9820;DHT22;4949;48.482;9.206;2023-07-09T08:28:02;25.90;55.10
9820;DHT22;4949;48.482;9.206;2023-07-09T08:33:03;26.20;55.20
9820;DHT22;4949;48.482;9.206;2023-07-09T08:38:04;26.50;54.30
9820;DHT22;4949;48.482;9.206;2023-07-09T08:48:35;26.90;52.90
9820;DHT22;4949;48.482;9.206;2023-07-09T08:54:17;27.10;53.00
9820;DHT22;4949;48.482;9.206;2023-07-09T08:59:17;27.30;52.10
9820;DHT22;4949;48.482;9.206;2023-07-09T09:04:24;27.50;52.40
9820;DHT22;4949;48.482;9.206;2023-07-09T09:09:40;27.80;50.90
9820;DHT22;4949;48.482;9.206;2023-07-09T09:14:57;28.00;49.70
9820;DHT22;4949;48.482;9.206;2023-07-09T09:20:09;28.10;49.40
9820;DHT22;4949;48.482;9.206;2023-07-09T09:30:19;28.70;47.60
9820;DHT22;4949;48.482;9.206;2023-07-09T09:40:36;29.10;46.70
9820;DHT22;4949;48.482;9.206;2023-07-09T09:45:38;29.20;46.30
9820;DHT22;4949;48.482;9.206;2023-07-09T09:50:41;29.40;45.30
9820;DHT22;4949;48.482;9.206;2023-07-09T09:55:42;29.60;44.50
9820;DHT22;4949;48.482;9.206;2023-07-09T10:00:53;29.70;44.30
9820;DHT22;4949;48.482;9.206;2023-07-09T10:06:01;29.90;43.20
9820;DHT22;4949;48.482;9.206;2023-07-09T10:16:59;30.20;42.80
9820;DHT22;4949;48.482;9.206;2023-07-09T10:33:10;30.90;40.60
9820;DHT22;4949;48.482;9.206;2023-07-09T10:39:08;31.20;40.90
9820;DHT22;4949;48.482;9.206;2023-07-09T10:49:38;31.60;40.00
9820;DHT22;4949;48.482;9.206;2023-07-09T11:00:15;32.10;35.70
9820;DHT22;4949;48.482;9.206;2023-07-09T11:05:21;32.30;34.10
9820;DHT22;4949;48.482;9.206;2023-07-09T11:10:37;32.70;33.10
9820;DHT22;4949;48.482;9.206;2023-07-09T11:15:43;33.00;32.40
9820;DHT22;4949;48.482;9.206;2023-07-09T11:20:46;33.40;31.50
9820;DHT22;4949;48.482;9.206;2023-07-09T11:26:01;33.70;30.40
9820;DHT22;4949;48.482;9.206;2023-07-09T11:36:26;34.00;30.60
9820;DHT22;4949;48.482;9.206;2023-07-09T11:41:36;34.30;30.40
9820;DHT22;4949;48.482;9.206;2023-07-09T11:52:42;34.90;29.30
9820;DHT22;4949;48.482;9.206;2023-07-09T11:57:52;35.00;29.10
9820;DHT22;4949;48.482;9.206;2023-07-09T12:02:56;35.10;28.40
9820;DHT22;4949;48.482;9.206;2023-07-09T12:08:00;35.30;28.90
9820;DHT22;4949;48.482;9.206;2023-07-09T12:13:04;35.60;28.90
9820;DHT22;4949;48.482;9.206;2023-07-09T12:18:14;35.80;28.00
9820;DHT22;4949;48.482;9.206;2023-07-09T12:23:29;36.00;28.00
9820;DHT22;4949;48.482;9.206;2023-07-09T12:28:32;36.30;27.20
9820;DHT22;4949;48.482;9.206;2023-07-09T12:33:33;36.60;27.00
9820;DHT22;4949;48.482;9.206;2023-07-09T12:38:45;36.60;27.00
9820;DHT22;4949;48.482;9.206;2023-07-09T12:43:55;36.50;26.90
9820;DHT22;4949;48.482;9.206;2023-07-09T12:49:01;36.80;26.90
9820;DHT22;4949;48.482;9.206;2023-07-09T12:54:14;37.00;26.10
9820;DHT22;4949;48.482;9.206;2023-07-09T13:04:32;37.20;25.40
9820;DHT22;4949;48.482;9.206;2023-07-09T13:09:35;37.20;24.20
9820;DHT22;4949;48.482;9.206;2023-07-09T13:14:38;37.50;24.50
9820;DHT22;4949;48.482;9.206;2023-07-09T13:19:38;37.90;24.50
9820;DHT22;4949;48.482;9.206;2023-07-09T13:24:39;38.20;23.70
9820;DHT22;4949;48.482;9.206;2023-07-09T13:29:40;38.30;23.30
9820;DHT22;4949;48.482;9.206;2023-07-09T13:34:42;38.30;23.10
9820;DHT22;4949;48.482;9.206;2023-07-09T13:39:44;38.30;22.30
9820;DHT22;4949;48.482;9.206;2023-07-09T13:44:49;37.80;23.20
9820;DHT22;4949;48.482;9.206;2023-07-09T13:49:50;37.70;22.90
9820;DHT22;4949;48.482;9.206;2023-07-09T13:54:52;37.70;22.70
9820;DHT22;4949;48.482;9.206;2023-07-09T13:59:52;38.00;22.90
9820;DHT22;4949;48.482;9.206;2023-07-09T14:05:03;38.20;23.00
9820;DHT22;4949;48.482;9.206;2023-07-09T14:10:11;37.90;23.10
9820;DHT22;4949;48.482;9.206;2023-07-09T14:15:19;38.00;23.20
9820;DHT22;4949;48.482;9.206;2023-07-09T14:20:21;38.20;23.00
9820;DHT22;4949;48.482;9.206;2023-07-09T14:25:24;38.40;22.70
9820;DHT22;4949;48.482;9.206;2023-07-09T14:30:26;38.60;22.30
9820;DHT22;4949;48.482;9.206;2023-07-09T14:35:27;38.70;23.00
9820;DHT22;4949;48.482;9.206;2023-07-09T14:40:28;38.90;22.40
9820;DHT22;4949;48.482;9.206;2023-07-09T14:45:32;39.10;22.70
9820;DHT22;4949;48.482;9.206;2023-07-09T14:50:35;39.00;22.50
9820;DHT22;4949;48.482;9.206;2023-07-09T14:55:36;39.30;22.20
9820;DHT22;4949;48.482;9.206;2023-07-09T15:00:36;39.50;21.70
9820;DHT22;4949;48.482;9.206;2023-07-09T15:05:37;39.50;21.80
9820;DHT22;4949;48.482;9.206;2023-07-09T15:10:38;39.50;22.00
9820;DHT22;4949;48.482;9.206;2023-07-09T15:15:39;39.60;21.70
9820;DHT22;4949;48.482;9.206;2023-07-09T15:20:46;39.60;21.60
9820;DHT22;4949;48.482;9.206;2023-07-09T15:25:50;39.40;21.90
9820;DHT22;4949;48.482;9.206;2023-07-09T15:30:51;39.40;22.50
9820;DHT22;4949;48.482;9.206;2023-07-09T15:35:51;39.50;22.60
9820;DHT22;4949;48.482;9.206;2023-07-09T15:45:58;39.30;22.20
9820;DHT22;4949;48.482;9.206;2023-07-09T15:51:04;39.20;23.10
9820;DHT22;4949;48.482;9.206;2023-07-09T15:56:13;39.10;23.40
9820;DHT22;4949;48.482;9.206;2023-07-09T16:01:19;38.90;22.50
9820;DHT22;4949;48.482;9.206;2023-07-09T16:06:20;38.80;22.60
9820;DHT22;4949;48.482;9.206;2023-07-09T16:11:23;38.40;23.00
9820;DHT22;4949;48.482;9.206;2023-07-09T16:16:26;38.20;24.20
9820;DHT22;4949;48.482;9.206;2023-07-09T16:21:30;38.10;23.80
9820;DHT22;4949;48.482;9.206;2023-07-09T16:26:36;37.80;24.00
9820;DHT22;4949;48.482;9.206;2023-07-09T16:31:36;37.60;24.40
9820;DHT22;4949;48.482;9.206;2023-07-09T16:36:37;37.60;24.00
9820;DHT22;4949;48.482;9.206;2023-07-09T16:41:38;37.40;24.30
9820;DHT22;4949;48.482;9.206;2023-07-09T16:46:42;37.30;24.60
9820;DHT22;4949;48.482;9.206;2023-07-09T16:51:45;37.20;25.10
9820;DHT22;4949;48.482;9.206;2023-07-09T16:56:48;37.10;25.00
9820;DHT22;4949;48.482;9.206;2023-07-09T17:01:51;37.10;25.10
9820;DHT22;4949;48.482;9.206;2023-07-09T17:06:54;37.00;25.60
9820;DHT22;4949;48.482;9.206;2023-07-09T17:11:57;36.90;25.70
9820;DHT22;4949;48.482;9.206;2023-07-09T17:17:01;36.70;26.20
9820;DHT22;4949;48.482;9.206;2023-07-09T17:22:20;36.60;26.50
9820;DHT22;4949;48.482;9.206;2023-07-09T17:27:27;36.60;27.20
9820;DHT22;4949;48.482;9.206;2023-07-09T17:32:28;36.50;27.70
9820;DHT22;4949;48.482;9.206;2023-07-09T17:37:29;36.40;28.60
9820;DHT22;4949;48.482;9.206;2023-07-09T17:42:29;36.20;28.90
9820;DHT22;4949;48.482;9.206;2023-07-09T17:47:30;35.90;29.00
9820;DHT22;4949;48.482;9.206;2023-07-09T17:52:31;35.80;28.80
9820;DHT22;4949;48.482;9.206;2023-07-09T17:57:34;35.70;28.10
9820;DHT22;4949;48.482;9.206;2023-07-09T18:02:37;35.60;27.60
9820;DHT22;4949;48.482;9.206;2023-07-09T18:07:39;35.40;28.40
9820;DHT22;4949;48.482;9.206;2023-07-09T18:12:42;35.30;29.10
9820;DHT22;4949;48.482;9.206;2023-07-09T18:17:42;35.10;29.90
9820;DHT22;4949;48.482;9.206;2023-07-09T18:22:46;34.90;30.60
9820;DHT22;4949;48.482;9.206;2023-07-09T18:27:49;34.70;31.00
9820;DHT22;4949;48.482;9.206;2023-07-09T18:32:53;34.50;31.20
9820;DHT22;4949;48.482;9.206;2023-07-09T18:38:01;34.30;31.70
9820;DHT22;4949;48.482;9.206;2023-07-09T18:43:15;34.10;32.40
9820;DHT22;4949;48.482;9.206;2023-07-09T18:48:22;33.80;33.00
9820;DHT22;4949;48.482;9.206;2023-07-09T18:53:30;33.60;33.00
9820;DHT22;4949;48.482;9.206;2023-07-09T18:58:35;33.40;33.30
9820;DHT22;4949;48.482;9.206;2023-07-09T19:03:37;33.10;33.90
9820;DHT22;4949;48.482;9.206;2023-07-09T19:08:40;32.90;34.20
9820;DHT22;4949;48.482;9.206;2023-07-09T19:13:42;32.60;34.40
9820;DHT22;4949;48.482;9.206;2023-07-09T19:18:45;32.40;34.70
9820;DHT22;4949;48.482;9.206;2023-07-09T19:23:50;32.20;34.60
9820;DHT22;4949;48.482;9.206;2023-07-09T19:28:50;32.00;35.40
9820;DHT22;4949;48.482;9.206;2023-07-09T19:33:54;31.90;36.30
9820;DHT22;4949;48.482;9.206;2023-07-09T19:38:55;31.80;36.70
9820;DHT22;4949;48.482;9.206;2023-07-09T19:43:56;31.70;36.10
9820;DHT22;4949;48.482;9.206;2023-07-09T19:49:00;31.60;36.50
9820;DHT22;4949;48.482;9.206;2023-07-09T19:54:01;31.40;37.50
9820;DHT22;4949;48.482;9.206;2023-07-09T19:59:02;31.30;37.30
9820;DHT22;4949;48.482;9.206;2023-07-09T20:04:05;31.40;34.90
9820;DHT22;4949;48.482;9.206;2023-07-09T20:09:16;31.20;35.10
9820;DHT22;4949;48.482;9.206;2023-07-09T20:14:21;31.00;35.70
9820;DHT22;4949;48.482;9.206;2023-07-09T20:19:22;30.80;36.20
9820;DHT22;4949;48.482;9.206;2023-07-09T20:24:23;30.60;37.20
9820;DHT22;4949;48.482;9.206;2023-07-09T20:29:24;30.40;37.60
9820;DHT22;4949;48.482;9.206;2023-07-09T20:34:28;30.20;37.60
9820;DHT22;4949;48.482;9.206;2023-07-09T20:39:32;30.10;37.60
9820;DHT22;4949;48.482;9.206;2023-07-09T20:44:37;30.00;37.70
9820;DHT22;4949;48.482;9.206;2023-07-09T20:49:41;29.90;38.20
9820;DHT22;4949;48.482;9.206;2023-07-09T20:54:42;29.70;38.50
9820;DHT22;4949;48.482;9.206;2023-07-09T20:59:46;29.60;38.70
9820;DHT22;4949;48.482;9.206;2023-07-09T21:04:51;29.40;39.10
9820;DHT22;4949;48.482;9.206;2023-07-09T21:09:54;29.20;39.30
9820;DHT22;4949;48.482;9.206;2023-07-09T21:14:55;29.10;39.10
9820;DHT22;4949;48.482;9.206;2023-07-09T21:19:55;29.10;38.80
9820;DHT22;4949;48.482;9.206;2023-07-09T21:24:57;29.10;39.10
9820;DHT22;4949;48.482;9.206;2023-07-09T21:29:58;29.10;39.20
9820;DHT22;4949;48.482;9.206;2023-07-09T21:34:59;29.00;39.20
9820;DHT22;4949;48.482;9.206;2023-07-09T21:40:00;28.90;39.40
9820;DHT22;4949;48.482;9.206;2023-07-09T21:45:00;28.80;39.70
9820;DHT22;4949;48.482;9.206;2023-07-09T21:50:09;28.70;39.60
9820;DHT22;4949;48.482;9.206;2023-07-09T21:55:16;28.60;39.60
9820;DHT22;4949;48.482;9.206;2023-07-09T22:00:26;28.50;39.90
9820;DHT22;4949;48.482;9.206;2023-07-09T22:05:28;28.40;40.20
9820;DHT22;4949;48.482;9.206;2023-07-09T22:10:34;28.40;40.40
9820;DHT22;4949;48.482;9.206;2023-07-09T22:15:36;28.30;40.70
9820;DHT22;4949;48.482;9.206;2023-07-09T22:20:39;28.20;40.90
9820;DHT22;4949;48.482;9.206;2023-07-09T22:25:43;28.10;41.00
9820;DHT22;4949;48.482;9.206;2023-07-09T22:30:44;28.10;41.10
9820;DHT22;4949;48.482;9.206;2023-07-09T22:35:48;28.00;41.20
9820;DHT22;4949;48.482;9.206;2023-07-09T22:40:48;28.00;42.50
9820;DHT22;4949;48.482;9.206;2023-07-09T22:45:52;28.00;43.00
9820;DHT22;4949;48.482;9.206;2023-07-09T22:50:53;28.00;43.00
9820;DHT22;4949;48.482;9.206;2023-07-09T22:55:55;28.10;43.00
9820;DHT22;4949;48.482;9.206;2023-07-09T23:00:59;28.00;43.40
9820;DHT22;4949;48.482;9.206;2023-07-09T23:06:19;27.60;44.10
9820;DHT22;4949;48.482;9.206;2023-07-09T23:11:29;27.30;45.00
9820;DHT22;4949;48.482;9.206;2023-07-09T23:16:34;27.10;46.80
9820;DHT22;4949;48.482;9.206;2023-07-09T23:21:35;26.90;47.90
9820;DHT22;4949;48.482;9.206;2023-07-09T23:26:41;26.60;48.90
9820;DHT22;4949;48.482;9.206;2023-07-09T23:31:50;26.60;49.10
9820;DHT22;4949;48.482;9.206;2023-07-09T23:36:53;26.80;48.50
9820;DHT22;4949;48.482;9.206;2023-07-09T23:41:54;26.70;48.80
9820;DHT22;4949;48.482;9.206;2023-07-09T23:46:56;26.40;49.80
9820;DHT22;4949;48.482;9.206;2023-07-09T23:51:57;26.30;50.50
9820;DHT22;4949;48.482;9.206;2023-07-09T23:57:00;26.10;50.90
